Time;durP1;ratioP1;P1;durP2;ratioP2;P2;SDS_P1;SDS_P2;PMS_P1;PMS_P2;Temp;Humidity;BMP_temperature;BMP_pressure;BME280_temperature;BME280_humidity;BME280_pressure;Samples;Min_cycle;Max_cycle;Signal;HPM_P1;HPM_P2
2023/01/11 00:00:35;;;;;;;0.50;0.10;;;7.50;99.90;;;;;;4825960;29;20453;-72
2023/01/11 00:03:04;;;;;;;0.50;0.10;;;7.50;99.90;;;;;;4816194;29;20462;-71
2023/01/11 00:05:36;;;;;;;0.50;0.10;;;7.50;99.90;;;;;;4821304;29;20489;-72
2023/01/11 00:08:05;;;;;;;1.67;1.57;;;7.50;99.90;;;;;;4829659;29;20526;-72
2023/01/11 00:10:33;;;;;;;0.70;0.60;;;7.50;99.90;;;;;;4845345;29;20457;-71
2023/01/11 00:13:02;;;;;;;0.50;0.10;;;7.60;99.90;;;;;;4846026;29;20467;-71
2023/01/11 00:15:30;;;;;;;0.50;0.10;;;7.60;99.90;;;;;;4844472;29;20484;-72
2023/01/11 00:17:58;;;;;;;0.50;0.10;;;7.50;99.90;;;;;;4828303;29;20479;-71
2023/01/11 00:20:26;;;;;;;0.50;0.10;;;7.60;99.90;;;;;;4827952;29;20461;-72
2023/01/11 00:22:54;;;;;;;0.50;0.10;;;7.60;99.90;;;;;;4827169;29;20454;-71
2023/01/11 00:25:22;;;;;;;0.50;0.10;;;7.60;99.90;;;;;;4825190;29;20500;-72
2023/01/11 00:27:49;;;;;;;0.60;0.50;;;7.60;99.90;;;;;;4807230;29;20466;-72
2023/01/11 00:30:19;;;;;;;0.50;0.10;;;7.60;99.90;;;;;;4806471;29;20465;-72
2023/01/11 00:32:47;;;;;;;0.50;0.10;;;7.60;99.90;;;;;;4806034;29;20458;-72
2023/01/11 00:35:15;;;;;;;0.50;0.10;;;7.60;99.90;;;;;;4805361;29;20481;-71
2023/01/11 00:37:43;;;;;;;0.50;0.10;;;7.60;99.90;;;;;;4822185;29;20461;-72
2023/01/11 00:40:11;;;;;;;0.50;0.10;;;7.60;99.90;;;;;;4824103;29;20486;-71
2023/01/11 00:48:20;;;;;;;0.50;0.10;;;7.60;99.90;;;;;;4833746;29;20473;-72
2023/01/11 00:50:48;;;;;;;0.50;0.10;;;7.60;99.90;;;;;;4842227;29;20448;-72
2023/01/11 00:53:17;;;;;;;0.50;0.10;;;7.60;99.90;;;;;;4841437;29;20448;-73
2023/01/11 00:55:45;;;;;;;0.50;0.10;;;7.70;99.90;;;;;;4838336;29;20877;-71
2023/01/11 00:58:13;;;;;;;0.50;0.10;;;7.70;99.90;;;;;;4827867;29;20457;-71
2023/01/11 05:02:38;;;;;;;0.50;0.10;;;8.40;1.00;;;;;;4924707;24;20504;-71
2023/01/11 05:05:07;;;;;;;2.23;2.10;;;8.20;1.00;;;;;;4826462;29;20493;-71
2023/01/11 05:07:36;;;;;;;0.50;0.10;;;8.20;1.00;;;;;;4823411;29;20458;-71
2023/01/11 05:10:04;;;;;;;0.50;0.10;;;8.20;1.00;;;;;;4825643;29;20461;-71
2023/01/11 05:12:32;;;;;;;2.20;2.00;;;8.30;1.00;;;;;;4812046;29;20493;-71
2023/01/11 05:15:00;;;;;;;0.60;0.20;;;8.30;1.00;;;;;;4808982;29;20469;-73
2023/01/11 05:17:29;;;;;;;0.80;0.40;;;8.40;1.00;;;;;;4829452;24;20532;-71
2023/01/11 05:19:58;;;;;;;0.50;0.20;;;8.40;1.00;;;;;;4827169;29;20812;-74
2023/01/11 05:22:26;;;;;;;0.70;0.33;;;8.40;1.00;;;;;;4825109;29;20873;-69
2023/01/11 05:24:54;;;;;;;0.80;0.50;;;8.40;1.00;;;;;;4826670;29;20466;-73
2023/01/11 05:27:22;;;;;;;0.57;0.40;;;8.40;1.00;;;;;;4826276;29;20480;-72
2023/01/11 05:29:49;;;;;;;0.50;0.30;;;8.40;1.00;;;;;;4827153;29;20457;-72
2023/01/11 05:32:17;;;;;;;1.23;1.03;;;8.40;1.00;;;;;;4839778;29;20452;-74
2023/01/11 05:34:45;;;;;;;0.60;0.30;;;8.40;1.00;;;;;;4826328;29;20532;-75
2023/01/11 05:37:14;;;;;;;0.53;0.40;;;8.50;1.00;;;;;;4823894;29;20493;-71
2023/01/11 05:39:42;;;;;;;0.50;0.20;;;8.50;1.00;;;;;;4839667;29;20457;-71
2023/01/11 05:42:10;;;;;;;0.50;0.20;;;8.40;1.00;;;;;;4831518;29;20948;-70
2023/01/11 05:47:25;;;;;;;0.50;0.10;;;8.50;1.00;;;;;;4825421;29;20480;-71
2023/01/11 05:49:53;;;;;;;1.43;0.43;;;8.60;1.00;;;;;;4828425;29;20445;-71
2023/01/11 05:52:22;;;;;;;0.80;0.50;;;8.50;1.00;;;;;;4828924;29;20937;-71
2023/01/11 05:54:50;;;;;;;7.17;1.80;;;8.60;1.00;;;;;;4827532;29;20960;-70
2023/01/11 05:57:18;;;;;;;0.50;0.17;;;8.50;1.00;;;;;;4837435;29;20479;-70
2023/01/11 05:59:46;;;;;;;3.80;2.10;;;8.50;1.00;;;;;;4841749;29;20447;-71
2023/01/11 06:02:14;;;;;;;0.60;0.30;;;8.50;1.00;;;;;;4825318;29;20506;-73
2023/01/11 06:04:42;;;;;;;0.50;0.30;;;8.50;1.00;;;;;;4826006;29;20952;-74
2023/01/11 06:07:10;;;;;;;0.50;0.10;;;8.60;1.00;;;;;;4828475;29;21217;-70
2023/01/11 06:09:39;;;;;;;0.93;0.80;;;8.60;1.00;;;;;;4833340;29;20964;-70
2023/01/11 06:12:09;;;;;;;0.50;0.10;;;8.70;1.00;;;;;;4842272;29;20432;-73
2023/01/11 06:14:37;;;;;;;0.50;0.10;;;8.70;1.00;;;;;;4830408;29;20449;-71
2023/01/11 06:17:05;;;;;;;1.10;1.10;;;8.80;1.00;;;;;;4828726;29;20537;-70
2023/01/11 06:19:35;;;;;;;0.50;0.10;;;;;;;;;;4831060;29;20453;-72
2023/01/11 06:22:03;;;;;;;0.50;0.10;;;8.80;1.00;;;;;;4831931;29;20556;-70
2023/01/11 06:24:31;;;;;;;1.00;0.87;;;8.80;1.00;;;;;;4843050;29;20452;-73
2023/01/11 06:27:00;;;;;;;0.50;0.10;;;8.80;1.00;;;;;;4836257;29;21064;-75
2023/01/11 06:29:27;;;;;;;0.50;0.10;;;8.80;1.00;;;;;;4836478;29;20457;-71
2023/01/11 06:31:57;;;;;;;1.73;0.93;;;8.80;1.00;;;;;;4842783;29;20448;-71
2023/01/11 06:34:25;;;;;;;0.70;0.60;;;8.90;1.00;;;;;;4844281;29;21176;-73
2023/01/11 06:36:52;;;;;;;0.50;0.10;;;8.90;1.00;;;;;;4829791;29;20496;-71
2023/01/11 06:39:20;;;;;;;0.50;0.20;;;8.80;1.00;;;;;;4843740;29;20459;-70
2023/01/11 06:41:48;;;;;;;0.50;0.10;;;8.80;1.00;;;;;;4843611;29;20464;-73
2023/01/11 06:44:18;;;;;;;0.50;0.10;;;8.90;1.00;;;;;;4827822;29;20805;-71
2023/01/11 06:46:45;;;;;;;0.50;0.20;;;8.90;1.00;;;;;;4835673;29;20546;-73
2023/01/11 06:49:13;;;;;;;0.50;0.10;;;8.90;1.00;;;;;;4842133;29;20466;-73
2023/01/11 06:51:41;;;;;;;0.50;0.10;;;8.80;1.00;;;;;;4819332;29;20454;-72
2023/01/11 06:54:09;;;;;;;0.80;0.60;;;8.80;1.00;;;;;;4836813;29;20468;-73
2023/01/11 06:56:37;;;;;;;0.50;0.10;;;8.90;1.00;;;;;;4831354;29;20477;-71
2023/01/11 06:59:05;;;;;;;0.50;0.10;;;8.90;1.00;;;;;;4831240;29;21268;-73
2023/01/11 07:01:34;;;;;;;0.50;0.10;;;9.00;1.00;;;;;;4826057;29;20511;-73
2023/01/11 07:04:03;;;;;;;0.50;0.10;;;9.00;1.00;;;;;;4829213;29;20540;-73
2023/01/11 07:06:34;;;;;;;0.50;0.10;;;8.90;1.00;;;;;;4835775;29;20542;-70
2023/01/11 07:09:02;;;;;;;0.50;0.10;;;8.90;1.00;;;;;;4820616;29;20457;-73
2023/01/11 07:11:33;;;;;;;0.50;0.10;;;9.00;1.00;;;;;;4814151;29;20461;-71
2023/01/11 07:14:01;;;;;;;0.60;0.30;;;9.00;1.00;;;;;;4806039;29;20562;-73
2023/01/11 07:16:29;;;;;;;0.50;0.10;;;9.00;1.00;;;;;;4814147;29;20453;-72
2023/01/11 07:18:59;;;;;;;0.50;0.20;;;9.00;1.00;;;;;;4825276;29;20464;-71
2023/01/11 07:21:27;;;;;;;0.50;0.10;;;9.00;1.00;;;;;;4826015;29;20509;-73
2023/01/11 07:23:55;;;;;;;0.60;0.30;;;9.10;1.00;;;;;;4825878;29;20510;-72
2023/01/11 07:26:25;;;;;;;0.50;0.10;;;9.10;1.00;;;;;;4825118;29;20488;-74
2023/01/11 07:28:53;;;;;;;0.50;0.10;;;9.10;1.00;;;;;;4825194;29;20910;-74
2023/01/11 07:31:21;;;;;;;0.50;0.10;;;9.10;1.00;;;;;;4824874;29;20510;-75
2023/01/11 07:33:49;;;;;;;0.50;0.10;;;9.10;1.00;;;;;;4824964;29;20472;-73
2023/01/11 07:36:18;;;;;;;0.50;0.30;;;9.20;1.00;;;;;;4824817;29;20493;-76
2023/01/11 07:38:47;;;;;;;0.60;0.30;;;9.20;1.00;;;;;;4822835;29;20461;-73
2023/01/11 07:43:57;;;;;;;0.50;0.20;;;9.10;1.00;;;;;;4803748;29;20453;-74
2023/01/11 07:46:25;;;;;;;0.50;0.10;;;9.10;1.00;;;;;;4825084;29;20488;-74
2023/01/11 07:48:53;;;;;;;0.50;0.10;;;9.10;1.00;;;;;;4824988;29;20507;-74
2023/01/11 07:51:23;;;;;;;0.50;0.10;;;9.20;1.00;;;;;;4825037;29;20454;-75
2023/01/11 07:53:51;;;;;;;0.50;0.10;;;9.20;1.00;;;;;;4825034;29;20812;-75
2023/01/11 07:56:18;;;;;;;0.60;0.20;;;9.20;1.00;;;;;;4825295;29;20521;-71
2023/01/11 07:58:47;;;;;;;0.50;0.10;;;9.20;1.00;;;;;;4830709;29;20450;-72
2023/01/11 08:01:15;;;;;;;0.50;0.10;;;9.30;1.00;;;;;;4832309;29;20453;-73
2023/01/11 08:03:43;;;;;;;0.50;0.10;;;9.30;1.00;;;;;;4830620;29;20454;-71
2023/01/11 08:06:13;;;;;;;0.50;0.10;;;;;;;;;;4827930;29;20460;-74
2023/01/11 08:08:44;;;;;;;0.50;0.10;;;9.30;1.00;;;;;;4834398;29;20457;-70
2023/01/11 08:16:42;;;;;;;0.50;0.10;;;9.30;1.00;;;;;;4824120;29;20493;-74
2023/01/11 08:19:13;;;;;;;0.50;0.10;;;9.30;1.00;;;;;;4818287;29;20464;-70
2023/01/11 08:21:43;;;;;;;0.50;0.10;;;9.30;1.00;;;;;;4825489;29;20462;-71
2023/01/11 08:24:12;;;;;;;0.50;0.10;;;9.30;1.00;;;;;;4825485;29;20468;-70
2023/01/11 08:26:40;;;;;;;0.50;0.17;;;9.40;1.00;;;;;;4826140;29;20504;-74
2023/01/11 08:29:08;;;;;;;0.50;0.10;;;9.40;1.00;;;;;;4827772;29;20467;-72
2023/01/11 08:31:36;;;;;;;0.50;0.10;;;9.40;1.00;;;;;;4829368;29;20457;-75
2023/01/11 08:34:04;;;;;;;0.50;0.10;;;9.40;1.00;;;;;;4828962;29;20513;-73
2023/01/11 08:36:31;;;;;;;0.50;0.10;;;9.40;1.00;;;;;;4827098;29;20558;-71
2023/01/11 08:38:59;;;;;;;0.50;0.10;;;9.40;1.00;;;;;;4824924;29;20880;-71
2023/01/11 08:41:28;;;;;;;0.50;0.10;;;9.50;1.00;;;;;;4824306;29;20473;-70
2023/01/11 08:43:56;;;;;;;0.50;0.20;;;9.50;1.00;;;;;;4825112;29;20453;-73
2023/01/11 08:46:25;;;;;;;0.50;0.10;;;9.40;1.00;;;;;;4823875;29;20476;-74
2023/01/11 08:48:53;;;;;;;0.50;0.10;;;9.50;1.00;;;;;;4842297;29;20531;-71
2023/01/11 08:51:21;;;;;;;0.50;0.10;;;9.50;1.00;;;;;;4841894;29;20460;-70
2023/01/11 08:53:51;;;;;;;0.50;0.10;;;9.50;1.00;;;;;;4841835;29;20846;-70
2023/01/11 08:56:19;;;;;;;0.50;0.10;;;9.50;1.00;;;;;;4841770;29;20456;-71
2023/01/11 08:58:48;;;;;;;2.23;2.03;;;9.50;1.00;;;;;;4842021;29;20805;-72
2023/01/11 09:01:16;;;;;;;0.50;0.10;;;9.50;1.00;;;;;;4841432;29;20476;-73
2023/01/11 09:03:44;;;;;;;0.97;0.97;;;9.50;1.00;;;;;;4841211;29;20452;-71
2023/01/11 09:06:12;;;;;;;0.50;0.10;;;;;;;;;;4842221;29;20464;-74
2023/01/11 09:08:41;;;;;;;0.50;0.10;;;9.60;1.00;;;;;;4842240;29;20492;-71
2023/01/11 09:11:52;;;;;;;0.50;0.10;;;9.60;1.00;;;;;;4839157;29;20453;-72
2023/01/11 09:13:58;;;;;;;0.50;0.10;;;9.60;1.00;;;;;;4820570;29;20469;-74
2023/01/11 09:16:26;;;;;;;0.50;0.10;;;9.60;1.00;;;;;;4825739;29;20543;-74
2023/01/11 09:18:54;;;;;;;0.50;0.10;;;9.60;1.00;;;;;;4847023;29;20447;-73
2023/01/11 09:21:23;;;;;;;0.50;0.10;;;9.60;1.00;;;;;;4844882;29;20931;-72
2023/01/11 09:23:50;;;;;;;0.50;0.10;;;9.60;1.00;;;;;;4849620;29;20464;-70
2023/01/11 09:26:18;;;;;;;0.50;0.10;;;9.70;1.00;;;;;;4839226;29;20464;-72
2023/01/11 09:28:46;;;;;;;1.30;1.20;;;9.70;1.00;;;;;;4843951;29;20481;-72
2023/01/11 09:31:15;;;;;;;0.50;0.10;;;9.70;1.00;;;;;;4840841;29;20441;-73
2023/01/11 09:33:43;;;;;;;0.50;0.10;;;9.70;1.00;;;;;;4831604;29;20452;-73
2023/01/11 09:36:13;;;;;;;0.50;0.20;;;9.70;1.00;;;;;;4828109;29;20518;-74
2023/01/11 09:38:42;;;;;;;0.50;0.10;;;9.70;1.00;;;;;;4827382;29;21048;-71
2023/01/11 09:41:25;;;;;;;0.60;0.37;;;9.70;1.00;;;;;;4831157;29;20458;-73
2023/01/11 09:44:01;;;;;;;0.90;0.83;;;9.70;1.00;;;;;;4838082;29;20971;-70
2023/01/11 09:46:32;;;;;;;0.63;0.47;;;9.80;1.00;;;;;;4827330;29;20798;-71
2023/01/11 09:49:02;;;;;;;0.60;0.40;;;9.80;1.00;;;;;;4828841;29;20485;-75
2023/01/11 09:51:36;;;;;;;0.50;0.10;;;9.80;1.00;;;;;;4832985;29;20478;-75
2023/01/11 09:54:08;;;;;;;0.70;0.40;;;9.80;1.00;;;;;;4830580;29;20548;-72
2023/01/11 09:56:46;;;;;;;0.50;0.10;;;9.80;1.00;;;;;;4833222;29;20469;-71
2023/01/11 09:59:23;;;;;;;0.50;0.10;;;9.70;1.00;;;;;;4847347;29;20559;-72
2023/01/11 10:02:00;;;;;;;0.50;0.10;;;9.70;1.00;;;;;;4849548;29;20513;-72
2023/01/11 10:05:05;;;;;;;0.60;0.50;;;9.70;1.00;;;;;;4846462;29;20753;-72
2023/01/11 10:07:56;;;;;;;0.50;0.10;;;9.80;1.00;;;;;;4787435;29;20538;-71
2023/01/11 10:10:57;;;;;;;0.50;0.10;;;9.80;1.00;;;;;;4845342;29;20501;-71
2023/01/11 10:13:53;;;;;;;0.50;0.10;;;9.80;1.00;;;;;;4833693;29;20453;-72
2023/01/11 10:16:35;;;;;;;0.50;0.10;;;9.90;1.00;;;;;;4830212;29;20520;-71
2023/01/11 10:19:31;;;;;;;0.50;0.10;;;9.90;1.00;;;;;;4838041;29;20960;-71
2023/01/11 10:22:11;;;;;;;0.50;0.10;;;9.90;1.00;;;;;;4847461;29;20951;-71
2023/01/11 10:24:44;;;;;;;0.50;0.10;;;9.90;1.00;;;;;;4846929;29;20433;-72
2023/01/11 10:27:20;;;;;;;0.50;0.10;;;10.00;1.00;;;;;;4849568;29;20499;-71
2023/01/11 10:30:07;;;;;;;1.33;0.53;;;10.00;1.00;;;;;;4849641;29;20934;-72
2023/01/11 10:32:52;;;;;;;0.50;0.10;;;10.00;1.00;;;;;;4844577;29;20471;-71
2023/01/11 10:35:44;;;;;;;0.50;0.10;;;10.00;1.00;;;;;;4843477;29;20979;-70
2023/01/11 10:38:41;;;;;;;0.50;0.10;;;10.00;1.00;;;;;;4844446;29;20587;-70
2023/01/11 10:41:20;;;;;;;0.50;0.30;;;10.00;1.00;;;;;;4817833;29;20964;-74
2023/01/11 10:44:00;;;;;;;0.50;0.10;;;10.10;1.00;;;;;;4844079;29;20444;-72
2023/01/11 10:46:30;;;;;;;0.50;0.10;;;10.10;1.00;;;;;;4844068;29;20478;-72
2023/01/11 10:49:15;;;;;;;0.50;0.13;;;10.10;1.00;;;;;;4840412;29;20489;-69
2023/01/11 10:51:48;;;;;;;0.50;0.20;;;10.10;1.00;;;;;;4826072;29;20453;-72
2023/01/11 10:54:17;;;;;;;0.70;0.30;;;10.10;1.00;;;;;;4825511;29;20449;-76
2023/01/11 10:56:56;;;;;;;0.60;0.37;;;10.00;1.00;;;;;;4825535;29;20469;-71
2023/01/11 10:59:51;;;;;;;0.50;0.10;;;10.00;1.00;;;;;;4826383;29;20449;-73
2023/01/11 11:02:35;;;;;;;0.80;0.40;;;10.00;1.00;;;;;;4826365;29;20464;-70
2023/01/11 11:05:19;;;;;;;0.60;0.40;;;10.00;1.00;;;;;;4825651;29;20851;-69
2023/01/11 11:07:54;;;;;;;0.50;0.10;;;10.00;1.00;;;;;;4825160;29;20503;-71
2023/01/11 11:10:27;;;;;;;0.50;0.10;;;10.00;1.00;;;;;;4825864;29;20862;-72
2023/01/11 11:13:06;;;;;;;0.70;0.70;;;10.10;1.00;;;;;;4826236;29;20460;-73
2023/01/11 11:15:38;;;;;;;0.50;0.20;;;10.10;1.00;;;;;;4825370;29;20463;-74
2023/01/11 11:18:06;;;;;;;0.50;0.20;;;10.20;1.00;;;;;;4862378;24;20994;-71
2023/01/11 11:20:34;;;;;;;0.50;0.10;;;10.20;1.00;;;;;;4833376;29;20517;-72
2023/01/11 11:23:04;;;;;;;0.60;0.30;;;10.20;1.00;;;;;;4826639;29;20485;-71
2023/01/11 11:25:36;;;;;;;0.50;0.10;;;10.30;1.00;;;;;;4826878;29;20457;-71
2023/01/11 11:28:06;;;;;;;3.17;2.87;;;10.30;1.00;;;;;;4835889;29;20572;-71
2023/01/11 11:30:37;;;;;;;0.50;0.10;;;10.40;1.00;;;;;;4849356;29;20880;-71
2023/01/11 11:33:13;;;;;;;0.50;0.10;;;10.50;1.00;;;;;;4866599;29;20543;-72
2023/01/11 11:35:45;;;;;;;0.50;0.20;;;10.50;1.00;;;;;;4860242;29;20475;-70
2023/01/11 11:38:22;;;;;;;0.50;0.10;;;10.60;1.00;;;;;;4859137;29;20538;-70
2023/01/11 11:40:57;;;;;;;0.50;0.10;;;10.60;1.00;;;;;;4863769;29;20871;-70
2023/01/11 11:43:27;;;;;;;0.50;0.10;;;10.70;1.00;;;;;;4863767;29;20451;-69
2023/01/11 11:45:57;;;;;;;0.50;0.10;;;10.70;1.00;;;;;;4855222;29;20492;-71
2023/01/11 11:48:26;;;;;;;0.50;0.10;;;10.80;1.00;;;;;;4826491;29;20543;-70
2023/01/11 11:50:56;;;;;;;0.50;0.10;;;10.80;1.00;;;;;;4826712;29;20464;-71
2023/01/11 11:53:34;;;;;;;0.50;0.10;;;10.90;1.00;;;;;;4833878;29;20463;-71
2023/01/11 11:56:08;;;;;;;0.50;0.10;;;11.00;1.00;;;;;;4834811;29;20464;-71
2023/01/11 11:58:41;;;;;;;0.50;0.10;;;11.10;1.00;;;;;;4849413;29;20472;-71
2023/01/11 12:01:21;;;;;;;0.50;0.20;;;11.20;1.00;;;;;;4845878;29;20457;-69
2023/01/11 12:03:50;;;;;;;0.50;0.10;;;11.30;1.00;;;;;;4845332;29;20452;-71
2023/01/11 12:06:22;;;;;;;0.50;0.10;;;11.30;1.00;;;;;;4842121;29;20475;-71
2023/01/11 12:08:53;;;;;;;0.50;0.20;;;11.30;1.00;;;;;;4860258;29;20479;-70
2023/01/11 12:11:28;;;;;;;0.50;0.10;;;11.30;1.00;;;;;;4861840;29;20452;-71
2023/01/11 12:14:04;;;;;;;0.80;0.60;;;11.30;1.00;;;;;;4862631;29;20455;-69
2023/01/11 12:16:36;;;;;;;0.50;0.20;;;11.30;1.00;;;;;;4843065;29;20517;-71
2023/01/11 12:19:03;;;;;;;0.50;0.10;;;11.20;1.00;;;;;;4825762;29;20457;-70
2023/01/11 12:21:31;;;;;;;0.50;0.10;;;11.20;1.00;;;;;;4830851;29;20461;-70
2023/01/11 12:24:18;;;;;;;0.80;0.43;;;11.20;1.00;;;;;;4844914;29;20481;-70
2023/01/11 12:26:56;;;;;;;0.50;0.27;;;11.20;1.00;;;;;;4841930;29;20956;-71
2023/01/11 12:29:54;;;;;;;0.50;0.10;;;11.10;1.00;;;;;;4842964;29;20486;-71
2023/01/11 12:32:54;;;;;;;0.50;0.10;;;11.10;1.00;;;;;;4851358;29;20440;-71
2023/01/11 12:35:35;;;;;;;0.50;0.10;;;11.10;1.00;;;;;;4845693;29;20457;-72
2023/01/11 12:38:21;;;;;;;0.50;0.10;;;11.10;1.00;;;;;;4846648;29;20464;-72
2023/01/11 12:41:02;;;;;;;0.60;0.30;;;11.10;1.00;;;;;;4845466;29;20440;-72
2023/01/11 12:43:40;;;;;;;0.50;0.10;;;11.10;1.00;;;;;;4845450;29;20448;-71
2023/01/11 12:46:18;;;;;;;0.50;0.10;;;11.10;1.00;;;;;;4841416;29;20448;-71
2023/01/11 12:49:03;;;;;;;0.50;0.20;;;11.00;1.00;;;;;;4842874;29;20471;-70
2023/01/11 12:51:49;;;;;;;0.50;0.10;;;11.00;1.00;;;;;;4847436;29;20477;-72
2023/01/11 12:54:50;;;;;;;0.50;0.10;;;11.10;1.00;;;;;;4846965;29;20504;-72
2023/01/11 12:57:29;;;;;;;0.50;0.10;;;11.20;1.00;;;;;;4851763;29;20475;-71
2023/01/11 13:00:26;;;;;;;0.50;0.10;;;11.20;1.00;;;;;;4854852;29;20441;-73
2023/01/11 13:03:13;;;;;;;0.50;0.10;;;11.20;1.00;;;;;;4836800;29;20449;-72
2023/01/11 13:05:53;;;;;;;0.87;0.50;;;11.20;1.00;;;;;;4832714;29;20552;-72
2023/01/11 13:08:29;;;;;;;0.50;0.10;;;11.10;1.00;;;;;;4838968;29;20467;-70
2023/01/11 13:11:05;;;;;;;0.50;0.10;;;11.20;1.00;;;;;;4845930;29;20491;-71
2023/01/11 13:13:48;;;;;;;0.50;0.17;;;11.20;1.00;;;;;;4845888;29;20444;-71
2023/01/11 13:16:22;;;;;;;0.50;0.10;;;11.20;1.00;;;;;;4847218;29;20478;-72
2023/01/11 13:18:58;;;;;;;0.50;0.10;;;11.10;1.00;;;;;;4848815;29;20519;-71
2023/01/11 13:21:32;;;;;;;0.50;0.20;;;11.20;1.00;;;;;;4841226;29;20552;-70
2023/01/11 13:24:05;;;;;;;0.57;0.37;;;11.20;1.00;;;;;;4846328;29;20479;-73
2023/01/11 13:26:37;;;;;;;0.50;0.10;;;11.20;1.00;;;;;;4847876;29;20807;-72
2023/01/11 13:29:15;;;;;;;0.50;0.10;;;11.20;1.00;;;;;;4844850;29;20858;-74
2023/01/11 13:31:45;;;;;;;0.50;0.10;;;11.30;1.00;;;;;;4846853;29;20963;-73
2023/01/11 13:34:18;;;;;;;0.50;0.10;;;11.30;1.00;;;;;;4848154;29;20467;-73
2023/01/11 13:36:55;;;;;;;0.50;0.10;;;11.30;1.00;;;;;;4847640;29;20479;-73
2023/01/11 13:39:29;;;;;;;0.50;0.20;;;11.30;1.00;;;;;;4849087;29;20478;-73
2023/01/11 13:42:07;;;;;;;0.50;0.10;;;11.30;1.00;;;;;;4848060;29;20523;-73
2023/01/11 13:44:42;;;;;;;0.50;0.10;;;11.30;1.00;;;;;;4848730;29;20493;-73
2023/01/11 13:47:18;;;;;;;0.50;0.10;;;11.30;1.00;;;;;;4848142;29;20463;-72
2023/01/11 13:49:56;;;;;;;0.50;0.10;;;11.40;1.00;;;;;;4847980;29;20854;-72
2023/01/11 13:52:36;;;;;;;0.50;0.10;;;11.40;1.00;;;;;;4849773;29;20547;-73
2023/01/11 13:55:10;;;;;;;0.50;0.20;;;11.40;1.00;;;;;;4847993;29;20444;-75
2023/01/11 13:57:59;;;;;;;0.50;0.10;;;11.30;1.00;;;;;;4849683;29;20468;-74
2023/01/11 14:00:32;;;;;;;0.50;0.10;;;11.30;1.00;;;;;;4847969;29;20536;-73
2023/01/11 14:03:14;;;;;;;0.50;0.10;;;11.30;1.00;;;;;;4842233;29;20461;-73
2023/01/11 14:05:47;;;;;;;0.60;0.30;;;11.30;1.00;;;;;;4828678;29;20461;-73
2023/01/11 14:08:25;;;;;;;0.50;0.10;;;11.30;1.00;;;;;;4836174;29;20480;-73
2023/01/11 14:11:00;;;;;;;0.50;0.10;;;11.30;1.00;;;;;;4864948;29;21018;-73
2023/01/11 14:16:37;;;;;;;0.50;0.10;;;11.30;1.00;;;;;;4851061;29;20519;-73
2023/01/11 14:19:16;;;;;;;0.50;0.10;;;11.40;1.00;;;;;;4848349;29;20452;-74
2023/01/11 14:21:59;;;;;;;0.50;0.10;;;11.40;1.00;;;;;;4850005;29;20505;-73
2023/01/11 14:24:29;;;;;;;0.50;0.10;;;11.40;1.00;;;;;;4850419;29;20536;-73
2023/01/11 14:27:17;;;;;;;0.50;0.10;;;11.30;1.00;;;;;;4851393;29;20532;-72
2023/01/11 14:30:16;;;;;;;0.50;0.10;;;11.20;1.00;;;;;;4827695;29;20532;-73
2023/01/11 14:33:18;;;;;;;0.60;0.33;;;11.10;1.00;;;;;;4830658;29;20461;-72
2023/01/11 14:35:59;;;;;;;0.50;0.10;;;11.10;1.00;;;;;;4827973;29;20457;-73
2023/01/11 14:38:52;;;;;;;0.50;0.10;;;11.10;1.00;;;;;;4827284;29;20472;-74
2023/01/11 14:41:51;;;;;;;0.50;0.20;;;11.10;1.00;;;;;;4827496;29;20450;-73
2023/01/11 14:44:48;;;;;;;0.50;0.10;;;11.10;1.00;;;;;;4833858;29;20458;-72
2023/01/11 14:47:34;;;;;;;0.50;0.10;;;11.00;1.00;;;;;;4853002;29;20487;-74
2023/01/11 14:50:23;;;;;;;0.50;0.10;;;11.00;1.00;;;;;;4830274;29;20493;-73
2023/01/11 14:52:52;;;;;;;0.50;0.10;;;11.00;1.00;;;;;;4828402;29;20461;-73
2023/01/11 14:55:23;;;;;;;0.50;0.10;;;11.00;1.00;;;;;;4834323;29;21033;-74
2023/01/11 14:58:03;;;;;;;0.50;0.10;;;11.00;1.00;;;;;;4827337;29;20481;-74
2023/01/11 15:01:09;;;;;;;0.50;0.10;;;11.00;1.00;;;;;;4835331;29;20452;-74
2023/01/11 15:03:46;;;;;;;0.50;0.10;;;11.00;1.00;;;;;;4844615;29;20464;-73
2023/01/11 15:06:19;;;;;;;0.50;0.10;;;11.00;1.00;;;;;;4841310;29;20444;-74
2023/01/11 15:08:50;;;;;;;0.50;0.20;;;10.90;1.00;;;;;;4851934;29;20467;-74
2023/01/11 15:11:34;;;;;;;1.37;0.47;;;10.90;1.00;;;;;;4843724;29;20516;-74
2023/01/11 15:14:07;;;;;;;0.50;0.10;;;10.90;99.90;;;;;;4843635;29;20548;-72
2023/01/11 15:19:28;;;;;;;0.60;0.50;;;10.90;99.90;;;;;;4844336;29;20456;-74
2023/01/11 15:21:59;;;;;;;0.50;0.10;;;11.00;99.90;;;;;;4839850;29;20453;-74
2023/01/11 15:24:29;;;;;;;0.50;0.10;;;10.90;99.90;;;;;;4827431;29;20473;-73
2023/01/11 15:27:00;;;;;;;0.50;0.10;;;11.00;99.90;;;;;;4826913;29;20442;-74
2023/01/11 15:29:30;;;;;;;0.60;0.10;;;11.00;99.90;;;;;;4826737;29;20473;-72
2023/01/11 15:32:15;;;;;;;0.50;0.10;;;11.00;99.90;;;;;;4843672;29;20484;-73
2023/01/11 15:34:44;;;;;;;0.50;0.10;;;11.00;99.90;;;;;;4844544;29;20547;-74
2023/01/11 15:37:44;;;;;;;0.50;0.10;;;11.00;99.90;;;;;;4844312;29;20476;-73
2023/01/11 15:40:18;;;;;;;0.50;0.10;;;11.00;99.90;;;;;;4843551;29;20471;-75
2023/01/11 15:43:25;;;;;;;0.50;0.10;;;11.00;99.90;;;;;;4845762;29;20463;-74
2023/01/11 15:49:44;;;;;;;0.50;0.10;;;10.90;99.90;;;;;;4812762;29;20868;-74
2023/01/11 15:52:38;;;;;;;0.50;0.10;;;10.80;99.90;;;;;;4846280;29;20484;-73
2023/01/11 15:55:47;;;;;;;0.50;0.10;;;10.80;99.90;;;;;;4846455;29;20768;-72
2023/01/11 15:58:47;;;;;;;0.50;0.20;;;10.80;99.90;;;;;;4847971;29;20484;-74
2023/01/11 16:01:22;;;;;;;0.50;0.10;;;10.80;99.90;;;;;;4847064;29;20995;-73
2023/01/11 16:04:01;;;;;;;0.50;0.10;;;10.70;99.90;;;;;;4846810;29;20490;-74
2023/01/11 16:06:51;;;;;;;0.50;0.10;;;10.60;99.90;;;;;;4856299;29;20499;-71
2023/01/11 16:09:45;;;;;;;0.50;0.10;;;10.60;99.90;;;;;;4848752;29;20460;-74
2023/01/11 16:12:36;;;;;;;0.50;0.10;;;10.50;99.90;;;;;;4848783;29;20528;-73
2023/01/11 16:15:22;;;;;;;0.50;0.10;;;10.40;99.90;;;;;;4842316;29;20449;-73
2023/01/11 16:17:51;;;;;;;0.50;0.10;;;10.40;99.90;;;;;;4842661;29;20499;-73
2023/01/11 16:20:24;;;;;;;0.80;0.40;;;10.30;99.90;;;;;;4824986;29;20441;-73
2023/01/11 16:22:56;;;;;;;0.50;0.17;;;10.30;99.90;;;;;;4825762;29;20453;-74
2023/01/11 16:25:29;;;;;;;0.60;0.30;;;10.20;99.90;;;;;;4825914;29;20426;-74
2023/01/11 16:27:59;;;;;;;8.07;1.03;;;10.20;99.90;;;;;;4827032;29;20488;-74
2023/01/11 16:30:28;;;;;;;0.77;0.57;;;10.20;99.90;;;;;;4843745;29;20547;-73
2023/01/11 16:33:14;;;;;;;0.80;0.10;;;10.10;99.90;;;;;;4846558;29;20481;-74
2023/01/11 16:35:42;;;;;;;0.70;0.30;;;10.10;99.90;;;;;;4851146;29;20472;-72
2023/01/11 16:38:16;;;;;;;0.50;0.10;;;10.10;99.90;;;;;;4843954;29;21064;-74
2023/01/11 16:40:48;;;;;;;0.50;0.10;;;10.20;99.90;;;;;;4827508;29;20494;-73
2023/01/11 16:43:22;;;;;;;0.50;0.10;;;10.20;99.90;;;;;;4826411;29;20517;-72
2023/01/11 16:45:53;;;;;;;13.13;1.50;;;10.10;99.90;;;;;;4833224;29;20471;-74
2023/01/11 16:48:22;;;;;;;0.50;0.30;;;10.20;99.90;;;;;;4857203;29;20466;-73
2023/01/11 16:50:59;;;;;;;0.50;0.23;;;10.20;99.90;;;;;;4859211;29;20853;-73
2023/01/11 16:53:29;;;;;;;0.50;0.10;;;10.20;99.90;;;;;;4842978;29;20504;-74
2023/01/11 16:56:03;;;;;;;0.50;0.10;;;10.20;99.90;;;;;;4842949;29;20822;-74
2023/01/11 16:58:34;;;;;;;0.50;0.20;;;10.20;99.90;;;;;;4849002;29;20472;-73
2023/01/11 17:01:04;;;;;;;0.70;0.60;;;10.20;99.90;;;;;;4855803;29;20478;-73
2023/01/11 17:03:34;;;;;;;0.50;0.10;;;10.20;99.90;;;;;;4859566;29;20448;-74
2023/01/11 17:06:16;;;;;;;0.50;0.10;;;10.20;99.90;;;;;;4849830;29;20466;-76
2023/01/11 17:08:47;;;;;;;0.50;0.10;;;10.10;99.90;;;;;;4846767;29;20492;-73
2023/01/11 17:11:31;;;;;;;0.50;0.10;;;10.10;99.90;;;;;;4854948;29;20499;-73
2023/01/11 17:14:32;;;;;;;0.50;0.10;;;10.10;99.90;;;;;;4834980;29;20557;-71
2023/01/11 17:17:04;;;;;;;0.50;0.20;;;10.10;99.90;;;;;;4856976;29;20492;-71
2023/01/11 17:19:35;;;;;;;0.50;0.30;;;10.10;99.90;;;;;;4836841;24;20526;-71
2023/01/11 17:22:06;;;;;;;0.50;0.10;;;10.10;99.90;;;;;;4828774;29;20452;-70
2023/01/11 17:24:39;;;;;;;0.50;0.10;;;10.00;99.90;;;;;;4824541;29;20988;-68
2023/01/11 17:27:15;;;;;;;0.50;0.20;;;10.00;99.90;;;;;;4824730;29;20460;-69
2023/01/11 17:29:46;;;;;;;0.70;0.40;;;9.90;99.90;;;;;;4839350;29;21003;-69
2023/01/11 17:32:19;;;;;;;0.70;0.50;;;9.80;99.90;;;;;;4832063;29;20496;-68
2023/01/11 17:34:50;;;;;;;0.50;0.10;;;9.70;99.90;;;;;;4823214;29;20453;-66
2023/01/11 17:37:19;;;;;;;0.50;0.10;;;9.70;99.90;;;;;;4824729;29;20461;-68
2023/01/11 17:39:50;;;;;;;0.50;0.10;;;9.70;99.90;;;;;;4825744;29;20810;-69
2023/01/11 17:45:23;;;;;;;0.50;0.10;;;9.70;99.90;;;;;;4786427;29;20462;-69
2023/01/11 17:47:52;;;;;;;0.77;0.37;;;9.70;99.90;;;;;;4785765;30;21049;-68
2023/01/11 17:50:29;;;;;;;0.50;0.10;;;9.70;99.90;;;;;;4804130;29;20459;-68
2023/01/11 17:53:05;;;;;;;0.50;0.10;;;9.70;99.90;;;;;;4825518;29;20622;-67
2023/01/11 17:55:34;;;;;;;0.50;0.30;;;9.80;99.90;;;;;;4824287;29;20487;-66
2023/01/11 17:58:18;;;;;;;0.50;0.10;;;9.80;99.90;;;;;;4825244;29;20481;-68
2023/01/11 18:01:13;;;;;;;0.50;0.10;;;9.80;99.90;;;;;;4835207;29;20545;-68
2023/01/11 18:03:43;;;;;;;0.50;0.10;;;9.80;99.90;;;;;;4844178;29;20806;-68
2023/01/11 18:06:13;;;;;;;0.50;0.10;;;9.80;99.90;;;;;;4835552;29;20465;-68
2023/01/11 18:08:46;;;;;;;0.50;0.10;;;9.70;99.90;;;;;;4831997;29;20480;-68